Time;durP1;ratioP1;P1;durP2;ratioP2;P2;SDS_P1;SDS_P2;PMS_P1;PMS_P2;Temp;Humidity;BMP_temperature;BMP_pressure;BME280_temperature;BME280_humidity;BME280_pressure;Samples;Min_cycle;Max_cycle;Signal;HPM_P1;HPM_P2
2023/04/25 00:02:25;;;;;;;12.87;6.80;;;7.20;1.00;;;;;;5059302;28;20227;-63
2023/04/25 00:04:52;;;;;;;20.53;8.07;;;7.10;1.00;;;;;;5045788;28;20184;-63
2023/04/25 00:07:19;;;;;;;15.67;6.80;;;6.90;1.00;;;;;;5049308;28;20782;-63
2023/04/25 00:09:46;;;;;;;10.57;5.93;;;7.00;1.00;;;;;;5035569;28;20215;-62
2023/04/25 00:12:13;;;;;;;20.97;9.60;;;7.20;1.00;;;;;;5048939;28;20222;-63
2023/04/25 00:14:40;;;;;;;19.10;8.63;;;7.30;1.00;;;;;;5025741;28;20804;-62
2023/04/25 00:17:07;;;;;;;19.20;8.90;;;7.20;1.00;;;;;;5040319;28;20761;-63
2023/04/25 00:19:34;;;;;;;24.20;7.93;;;7.10;1.00;;;;;;5031966;28;20683;-63
2023/04/25 00:22:02;;;;;;;22.30;8.37;;;7.10;1.00;;;;;;5047481;28;20218;-63
2023/04/25 00:24:29;;;;;;;18.73;8.07;;;7.10;1.00;;;;;;5031241;28;20600;-63
2023/04/25 00:26:56;;;;;;;20.73;8.37;;;7.10;1.00;;;;;;5028315;28;20259;-63
2023/04/25 00:29:23;;;;;;;19.70;8.07;;;7.10;1.00;;;;;;5035424;28;20204;-63
2023/04/25 00:31:50;;;;;;;18.03;8.30;;;7.10;1.00;;;;;;5044984;28;20271;-63
2023/04/25 00:34:17;;;;;;;11.20;6.87;;;7.20;1.00;;;;;;5012807;28;20660;-63
2023/04/25 00:36:44;;;;;;;13.83;7.30;;;7.50;1.00;;;;;;5043629;28;20683;-63
2023/04/25 00:39:12;;;;;;;13.60;6.43;;;7.60;1.00;;;;;;5047669;28;20233;-63
2023/04/25 00:41:39;;;;;;;15.60;7.77;;;7.50;1.00;;;;;;5050022;28;20194;-63
2023/04/25 00:44:11;;;;;;;15.10;9.07;;;7.70;1.00;;;;;;5050213;28;20217;-63
2023/04/25 00:46:39;;;;;;;17.17;8.43;;;7.50;1.00;;;;;;5037959;28;20298;-63
2023/04/25 00:49:06;;;;;;;14.83;7.57;;;7.50;1.00;;;;;;5026232;28;20210;-63
2023/04/25 00:51:34;;;;;;;17.17;7.27;;;7.70;1.00;;;;;;5036260;28;20200;-62
2023/04/25 00:54:01;;;;;;;10.97;7.90;;;7.60;1.00;;;;;;5046731;28;20191;-62
2023/04/25 00:56:28;;;;;;;18.50;8.60;;;7.60;1.00;;;;;;5040913;28;20227;-63
2023/04/25 00:58:56;;;;;;;14.73;7.70;;;7.60;1.00;;;;;;5040705;28;20192;-63
2023/04/25 01:01:23;;;;;;;13.77;7.17;;;7.60;1.00;;;;;;5046559;28;20594;-63
2023/04/25 01:03:52;;;;;;;10.80;6.50;;;8.00;1.00;;;;;;5021112;28;20259;-63
2023/04/25 01:06:19;;;;;;;9.93;5.63;;;8.20;1.00;;;;;;5042547;28;20668;-64
2023/04/25 01:08:46;;;;;;;12.97;6.30;;;8.70;1.00;;;;;;5044491;28;20220;-64
2023/04/25 01:11:13;;;;;;;11.63;7.00;;;8.60;1.00;;;;;;5048077;28;20214;-63
2023/04/25 01:13:40;;;;;;;9.07;6.07;;;8.50;1.00;;;;;;5047765;28;20219;-63
2023/04/25 01:16:07;;;;;;;10.47;6.23;;;8.20;1.00;;;;;;5039991;28;20282;-63
2023/04/25 01:18:35;;;;;;;12.70;6.33;;;8.10;1.00;;;;;;5045480;28;20208;-63
2023/04/25 01:21:08;;;;;;;11.77;6.87;;;8.00;1.00;;;;;;5054969;28;20199;-63
2023/04/25 01:23:37;;;;;;;11.87;6.50;;;8.30;1.00;;;;;;5045416;28;20207;-63
2023/04/25 01:26:05;;;;;;;11.27;6.87;;;8.20;1.00;;;;;;5041247;28;20258;-63
2023/04/25 01:28:33;;;;;;;15.93;7.53;;;8.20;1.00;;;;;;5041021;28;20194;-64
2023/04/25 01:31:01;;;;;;;15.63;7.40;;;8.10;1.00;;;;;;5057037;28;20206;-63
2023/04/25 01:33:29;;;;;;;10.03;6.30;;;8.00;1.00;;;;;;5040089;28;20594;-63
2023/04/25 01:35:56;;;;;;;10.07;6.37;;;8.20;1.00;;;;;;5042824;28;20207;-64
2023/04/25 01:38:24;;;;;;;12.63;8.07;;;8.00;1.00;;;;;;5042546;28;20219;-63
2023/04/25 01:40:52;;;;;;;10.63;7.53;;;7.90;1.00;;;;;;5041061;28;20199;-64
2023/04/25 01:43:19;;;;;;;11.90;6.83;;;8.10;1.00;;;;;;5040149;28;21117;-64
2023/04/25 01:45:47;;;;;;;11.50;6.20;;;8.10;1.00;;;;;;5044355;28;20214;-63
2023/04/25 01:48:15;;;;;;;11.93;7.00;;;8.30;1.00;;;;;;5044068;28;20655;-64
2023/04/25 01:50:43;;;;;;;11.20;6.57;;;8.60;1.00;;;;;;5040457;28;20282;-64
2023/04/25 01:53:13;;;;;;;12.00;6.43;;;8.40;1.00;;;;;;5030772;28;20208;-63
2023/04/25 01:55:42;;;;;;;12.83;6.87;;;8.50;1.00;;;;;;5045501;28;20780;-64
2023/04/25 01:58:13;;;;;;;11.63;7.60;;;8.40;1.00;;;;;;5023765;28;20211;-67
2023/04/25 02:01:09;;;;;;;13.33;8.53;;;8.00;1.00;;;;;;4987307;28;20210;-64
2023/04/25 02:03:43;;;;;;;13.90;8.37;;;8.30;1.00;;;;;;5042598;28;20223;-64
2023/04/25 02:06:20;;;;;;;13.87;7.80;;;8.70;1.00;;;;;;5046521;28;20183;-64
2023/04/25 02:08:48;;;;;;;13.93;8.50;;;8.40;1.00;;;;;;5040284;28;20287;-64
2023/04/25 02:11:15;;;;;;;12.50;8.27;;;8.10;1.00;;;;;;5038671;28;20281;-64
2023/04/25 02:13:51;;;;;;;16.43;8.90;;;8.00;1.00;;;;;;5041497;28;20675;-63
2023/04/25 02:16:39;;;;;;;17.73;9.50;;;8.20;1.00;;;;;;5057563;28;20668;-64
2023/04/25 02:19:07;;;;;;;12.27;8.20;;;8.10;1.00;;;;;;5058170;28;20223;-63
2023/04/25 02:21:35;;;;;;;16.47;9.60;;;8.00;1.00;;;;;;5044359;28;20241;-64
2023/04/25 02:24:04;;;;;;;14.83;9.20;;;8.00;1.00;;;;;;5029067;28;20326;-64
2023/04/25 02:26:31;;;;;;;13.53;9.23;;;7.80;1.00;;;;;;5055260;28;20227;-64
2023/04/25 02:28:57;;;;;;;13.10;9.27;;;7.90;1.00;;;;;;5044833;28;20183;-65
2023/04/25 02:31:25;;;;;;;12.73;8.13;;;8.10;1.00;;;;;;5061961;28;20220;-63
2023/04/25 02:33:55;;;;;;;12.43;7.83;;;8.00;1.00;;;;;;5030218;28;20196;-62
2023/04/25 02:36:22;;;;;;;12.27;8.13;;;7.90;1.00;;;;;;5044834;28;20203;-63
2023/04/25 02:38:49;;;;;;;14.30;7.80;;;7.70;1.00;;;;;;5028933;28;20789;-63
2023/04/25 02:41:16;;;;;;;13.83;7.07;;;7.60;1.00;;;;;;5032248;28;20533;-63
2023/04/25 02:43:43;;;;;;;13.80;9.00;;;7.40;99.90;;;;;;5043572;28;20282;-63
2023/04/25 02:46:10;;;;;;;11.77;7.37;;;7.70;99.90;;;;;;5046257;28;20196;-63
2023/04/25 02:48:39;;;;;;;14.00;8.30;;;7.60;99.90;;;;;;5062734;28;20203;-63
2023/04/25 02:51:06;;;;;;;20.27;8.93;;;7.70;1.00;;;;;;5037230;28;20230;-63
2023/04/25 02:53:33;;;;;;;11.87;7.90;;;7.80;1.00;;;;;;5060036;28;20257;-65
2023/04/25 02:56:00;;;;;;;16.13;9.80;;;8.00;1.00;;;;;;5036154;28;20195;-66
2023/04/25 02:58:27;;;;;;;15.03;6.70;;;8.00;1.00;;;;;;5051931;28;20219;-66
2023/04/25 03:00:54;;;;;;;11.83;7.13;;;8.30;1.00;;;;;;5041525;28;20195;-64
2023/04/25 03:03:21;;;;;;;11.77;7.23;;;8.00;1.00;;;;;;5033262;28;20223;-63
2023/04/25 03:05:50;;;;;;;17.37;10.83;;;7.80;1.00;;;;;;5016668;28;20564;-64
2023/04/25 03:08:22;;;;;;;18.10;10.40;;;8.20;1.00;;;;;;5026916;28;20199;-64
2023/04/25 03:10:51;;;;;;;15.10;8.67;;;8.70;1.00;;;;;;5020073;28;20231;-65
2023/04/25 03:13:18;;;;;;;15.93;9.30;;;8.90;1.00;;;;;;5025397;28;20203;-65
2023/04/25 03:15:46;;;;;;;17.13;8.20;;;9.40;1.00;;;;;;5008518;28;20212;-66
2023/04/25 03:18:13;;;;;;;16.60;7.10;;;9.50;1.00;;;;;;5019983;28;20755;-65
2023/04/25 03:20:41;;;;;;;14.50;7.53;;;9.60;1.00;;;;;;5034109;28;20241;-64
2023/04/25 03:23:08;;;;;;;11.23;6.17;;;9.60;1.00;;;;;;5045719;28;20266;-64
2023/04/25 03:25:36;;;;;;;13.70;8.23;;;9.50;1.00;;;;;;5021176;28;20200;-64
2023/04/25 03:28:04;;;;;;;14.30;6.73;;;9.50;1.00;;;;;;5043944;28;20214;-65
2023/04/25 03:30:31;;;;;;;14.77;7.10;;;9.30;1.00;;;;;;5011281;28;20239;-64
2023/04/25 03:32:59;;;;;;;13.10;7.47;;;9.30;1.00;;;;;;5028645;28;20245;-64
2023/04/25 03:35:26;;;;;;;12.13;6.50;;;9.50;1.00;;;;;;5032113;28;20192;-64
2023/04/25 03:37:54;;;;;;;11.80;7.07;;;9.40;1.00;;;;;;5037611;28;20219;-64
2023/04/25 03:40:26;;;;;;;14.93;6.37;;;9.60;1.00;;;;;;5038955;28;20200;-64
2023/04/25 03:43:17;;;;;;;16.70;5.70;;;9.50;1.00;;;;;;5024599;28;20208;-64
2023/04/25 03:45:50;;;;;;;12.83;5.90;;;9.50;1.00;;;;;;5028147;28;20194;-64
2023/04/25 03:48:24;;;;;;;11.13;5.67;;;9.60;1.00;;;;;;5028835;28;20196;-65
2023/04/25 03:50:54;;;;;;;15.97;5.00;;;9.40;1.00;;;;;;5039233;28;20204;-69
2023/04/25 03:53:21;;;;;;;8.07;5.47;;;8.80;1.00;;;;;;5044058;28;20192;-64
2023/04/25 03:56:07;;;;;;;11.07;5.23;;;8.90;1.00;;;;;;5026900;28;20214;-65
2023/04/25 03:58:36;;;;;;;14.00;4.87;;;8.80;1.00;;;;;;5039042;28;20607;-65
2023/04/25 04:01:07;;;;;;;9.40;5.17;;;8.60;1.00;;;;;;5026570;28;20191;-65
2023/04/25 04:03:37;;;;;;;14.87;5.00;;;8.70;1.00;;;;;;5048169;28;20235;-65
2023/04/25 04:06:06;;;;;;;10.87;4.97;;;8.80;1.00;;;;;;5044417;28;20204;-65
2023/04/25 04:08:36;;;;;;;19.00;5.60;;;8.70;1.00;;;;;;5044018;28;20229;-65
2023/04/25 04:11:03;;;;;;;17.47;5.23;;;8.70;1.00;;;;;;5040577;28;21047;-65
2023/04/25 04:13:31;;;;;;;16.27;4.63;;;8.70;1.00;;;;;;5047159;28;20617;-64
2023/04/25 04:15:59;;;;;;;12.90;5.37;;;8.50;1.00;;;;;;5029871;28;20192;-64
2023/04/25 04:18:26;;;;;;;11.53;5.10;;;8.50;1.00;;;;;;5045599;28;20722;-65
2023/04/25 04:20:57;;;;;;;12.20;5.40;;;8.60;1.00;;;;;;5036522;28;20268;-65
2023/04/25 04:23:27;;;;;;;10.27;4.80;;;8.60;1.00;;;;;;5045527;28;20195;-65
2023/04/25 04:25:56;;;;;;;9.17;4.70;;;8.70;1.00;;;;;;5058280;28;20721;-65
2023/04/25 04:28:43;;;;;;;14.10;5.00;;;8.40;1.00;;;;;;5041391;28;20199;-64
2023/04/25 04:31:37;;;;;;;17.33;5.93;;;8.30;1.00;;;;;;5037239;28;20220;-64
2023/04/25 04:34:04;;;;;;;11.17;4.37;;;8.20;1.00;;;;;;5061982;28;20286;-64
2023/04/25 04:36:33;;;;;;;11.57;5.67;;;8.00;1.00;;;;;;5061514;28;21633;-64
2023/04/25 04:39:01;;;;;;;11.13;4.20;;;8.20;1.00;;;;;;5042307;28;20590;-64
2023/04/25 04:41:43;;;;;;;12.97;5.10;;;8.40;1.00;;;;;;5061152;28;20191;-64
2023/04/25 04:44:32;;;;;;;17.60;5.53;;;8.40;1.00;;;;;;5037857;28;20444;-64
2023/04/25 04:47:10;;;;;;;18.83;6.00;;;8.30;1.00;;;;;;5041462;28;20278;-64
2023/04/25 04:50:16;;;;;;;15.53;5.03;;;8.30;1.00;;;;;;5022097;28;20570;-64
2023/04/25 04:53:15;;;;;;;18.87;5.03;;;8.50;1.00;;;;;;4994048;28;20205;-64
2023/04/25 04:55:51;;;;;;;16.73;5.63;;;8.60;1.00;;;;;;5039333;28;20218;-64
2023/04/25 04:58:29;;;;;;;27.97;5.97;;;8.50;1.00;;;;;;5047728;28;20824;-64
2023/04/25 05:01:26;;;;;;;10.07;4.67;;;8.50;1.00;;;;;;5044799;28;20188;-64
2023/04/25 05:04:03;;;;;;;21.13;5.23;;;8.70;1.00;;;;;;5042052;28;20230;-64
2023/04/25 05:06:46;;;;;;;11.27;4.30;;;8.70;1.00;;;;;;5038356;28;20338;-64
2023/04/25 05:09:15;;;;;;;15.90;4.53;;;8.80;1.00;;;;;;5045454;28;20298;-64
2023/04/25 05:12:02;;;;;;;16.70;5.27;;;8.70;1.00;;;;;;5039909;28;20196;-64
2023/04/25 05:14:38;;;;;;;19.73;4.83;;;8.90;1.00;;;;;;5040921;28;20278;-64
2023/04/25 05:17:13;;;;;;;19.20;5.33;;;9.00;1.00;;;;;;5027519;28;20202;-64
2023/04/25 05:19:55;;;;;;;14.50;4.67;;;9.10;1.00;;;;;;5041675;28;21372;-65
2023/04/25 05:22:49;;;;;;;14.73;4.83;;;9.20;1.00;;;;;;5042826;28;20187;-65
2023/04/25 05:25:29;;;;;;;14.77;5.10;;;8.90;1.00;;;;;;5051832;28;20192;-65
2023/04/25 05:28:25;;;;;;;9.83;3.73;;;8.70;1.00;;;;;;5037050;28;20207;-66
2023/04/25 05:31:27;;;;;;;15.60;4.90;;;8.70;1.00;;;;;;4964719;28;20225;-66
2023/04/25 05:34:02;;;;;;;18.33;5.90;;;8.90;1.00;;;;;;5026133;28;20684;-65
2023/04/25 05:36:40;;;;;;;11.07;4.07;;;9.00;1.00;;;;;;5063231;28;20694;-64
2023/04/25 05:39:08;;;;;;;13.07;4.50;;;9.10;1.00;;;;;;5043392;28;20239;-64
2023/04/25 05:42:11;;;;;;;26.57;5.70;;;9.30;1.00;;;;;;5011168;28;20204;-65
2023/04/25 05:45:00;;;;;;;16.87;4.00;;;9.40;1.00;;;;;;5013339;28;20200;-64
2023/04/25 05:47:36;;;;;;;17.43;4.47;;;10.10;1.00;;;;;;5015238;28;20200;-64
2023/04/25 05:50:08;;;;;;;16.17;4.03;;;10.30;1.00;;;;;;5045921;28;20211;-65
2023/04/25 05:52:58;;;;;;;10.67;3.57;;;10.50;1.00;;;;;;5051861;28;20234;-64
2023/04/25 05:55:31;;;;;;;8.93;3.60;;;11.80;1.00;;;;;;5042474;28;20199;-65
2023/04/25 05:58:00;;;;;;;11.53;4.47;;;12.50;1.00;;;;;;5044398;28;20686;-65
2023/04/25 06:00:27;;;;;;;14.33;4.43;;;12.50;1.00;;;;;;5037721;28;20290;-65
2023/04/25 06:03:03;;;;;;;13.53;3.83;;;12.40;1.00;;;;;;5065127;28;20292;-65
2023/04/25 06:05:30;;;;;;;13.20;4.27;;;12.60;1.00;;;;;;5077811;28;20593;-66
2023/04/25 06:07:58;;;;;;;10.00;3.53;;;13.00;1.00;;;;;;5059954;28;20181;-67
2023/04/25 06:10:25;;;;;;;11.03;3.37;;;12.70;1.00;;;;;;5054983;28;20241;-65
2023/04/25 06:12:52;;;;;;;8.97;3.70;;;12.70;1.00;;;;;;5051695;28;20195;-65
2023/04/25 06:15:21;;;;;;;11.83;3.13;;;12.70;1.00;;;;;;5051995;28;20191;-64
2023/04/25 06:17:55;;;;;;;9.80;3.23;;;12.50;1.00;;;;;;5055537;28;20203;-64
2023/04/25 06:20:22;;;;;;;16.10;4.27;;;12.20;1.00;;;;;;5050737;28;20198;-64
2023/04/25 06:22:51;;;;;;;11.55;3.80;;;12.40;1.00;;;;;;5054877;28;20710;-64
2023/04/25 06:25:20;;;;;;;9.20;2.90;;;15.40;1.00;;;;;;5056384;28;20195;-67
2023/04/25 06:27:48;;;;;;;14.30;4.03;;;17.50;1.00;;;;;;5054085;28;20279;-65
2023/04/25 06:30:18;;;;;;;14.25;4.25;;;16.70;1.00;;;;;;5059388;28;20289;-67
2023/04/25 06:32:45;;;;;;;9.43;4.10;;;15.20;1.00;;;;;;5070809;28;20207;-67
2023/04/25 06:35:12;;;;;;;8.88;2.70;;;13.90;1.00;;;;;;5059112;28;20236;-66
2023/04/25 06:37:40;;;;;;;16.73;3.60;;;13.10;1.00;;;;;;5062416;28;20206;-67
2023/04/25 06:40:08;;;;;;;17.00;4.00;;;12.80;1.00;;;;;;5055510;28;20640;-67
2023/04/25 06:42:35;;;;;;;8.88;3.03;;;12.40;1.00;;;;;;5054529;28;20207;-66
2023/04/25 06:45:21;;;;;;;13.17;3.10;;;12.50;1.00;;;;;;5057101;28;20201;-66
2023/04/25 06:47:49;;;;;;;11.07;3.33;;;12.60;1.00;;;;;;5067337;28;20221;-67
2023/04/25 06:50:16;;;;;;;12.05;3.50;;;12.70;1.00;;;;;;5061492;28;20804;-65
2023/04/25 06:52:43;;;;;;;13.90;3.50;;;13.10;1.00;;;;;;5050073;28;20257;-67
2023/04/25 06:55:10;;;;;;;12.02;3.20;;;13.10;1.00;;;;;;5055437;28;20195;-67
2023/04/25 06:57:56;;;;;;;11.60;3.30;;;13.00;1.00;;;;;;5054043;28;20210;-65
2023/04/25 07:00:46;;;;;;;12.43;3.80;;;12.70;1.00;;;;;;5055846;28;20207;-65
2023/04/25 07:03:13;;;;;;;11.20;3.47;;;13.20;1.00;;;;;;5060360;28;20214;-66
2023/04/25 07:05:40;;;;;;;10.60;3.80;;;13.40;1.00;;;;;;5060887;28;20699;-65
2023/04/25 07:08:07;;;;;;;12.20;3.75;;;13.40;1.00;;;;;;5059760;28;20275;-66
2023/04/25 07:10:34;;;;;;;16.13;4.13;;;13.40;1.00;;;;;;5076524;28;20222;-66
2023/04/25 07:13:02;;;;;;;14.57;3.50;;;13.90;1.00;;;;;;5057032;28;20199;-67
2023/04/25 07:15:29;;;;;;;10.07;3.38;;;14.40;1.00;;;;;;5050563;28;20684;-66
2023/04/25 07:17:58;;;;;;;12.93;3.33;;;15.10;1.00;;;;;;5048004;28;20198;-67
2023/04/25 07:20:25;;;;;;;18.35;3.47;;;15.30;1.00;;;;;;5050362;28;20199;-68
2023/04/25 07:22:52;;;;;;;11.85;3.30;;;15.00;1.00;;;;;;5046580;28;20219;-67
2023/04/25 07:25:20;;;;;;;11.40;3.35;;;14.90;1.00;;;;;;5041432;28;20206;-66
2023/04/25 07:27:47;;;;;;;13.02;3.03;;;15.30;1.00;;;;;;5059959;28;20296;-66
2023/04/25 07:30:17;;;;;;;12.30;3.20;;;15.30;1.00;;;;;;5064629;28;20856;-67
2023/04/25 07:32:45;;;;;;;16.25;3.53;;;15.70;1.00;;;;;;5048649;28;20249;-67
2023/04/25 07:35:12;;;;;;;9.63;3.15;;;16.40;1.00;;;;;;5065751;28;20241;-65
2023/04/25 07:37:40;;;;;;;6.57;2.67;;;18.00;1.00;;;;;;5045947;28;20206;-67
2023/04/25 07:40:11;;;;;;;10.05;3.38;;;19.80;1.00;;;;;;5044688;28;20615;-66
2023/04/25 07:42:44;;;;;;;7.07;2.13;;;20.20;1.00;;;;;;5047105;28;20644;-65
2023/04/25 07:45:15;;;;;;;9.40;2.90;;;19.90;1.00;;;;;;5046335;28;20191;-66
2023/04/25 07:47:43;;;;;;;9.13;3.15;;;19.50;1.00;;;;;;5048471;28;20616;-67
2023/04/25 07:50:10;;;;;;;13.50;3.35;;;19.00;1.00;;;;;;5045997;28;20200;-66
2023/04/25 07:52:37;;;;;;;6.65;2.80;;;18.20;1.00;;;;;;5044603;28;20196;-67
2023/04/25 07:55:17;;;;;;;10.05;3.17;;;18.60;1.00;;;;;;5044022;28;20227;-66
2023/04/25 07:57:56;;;;;;;8.18;2.50;;;19.20;1.00;;;;;;5049618;28;20199;-66
2023/04/25 08:00:23;;;;;;;8.85;3.00;;;20.30;1.00;;;;;;5063200;28;20195;-66
2023/04/25 08:03:02;;;;;;;5.93;2.38;;;20.10;1.00;;;;;;5042029;28;20235;-66
2023/04/25 08:05:29;;;;;;;10.57;2.55;;;19.10;1.00;;;;;;5041962;28;20199;-66
2023/04/25 08:08:02;;;;;;;7.50;2.83;;;19.80;1.00;;;;;;5059349;28;20264;-64
2023/04/25 08:10:29;;;;;;;7.88;2.78;;;19.00;1.00;;;;;;5047158;28;20697;-66
2023/04/25 08:12:56;;;;;;;7.30;2.67;;;19.00;1.00;;;;;;5039878;28;20203;-66
2023/04/25 08:15:23;;;;;;;7.22;2.85;;;18.00;1.00;;;;;;5035410;28;20196;-66
2023/04/25 08:17:51;;;;;;;12.63;3.45;;;16.10;1.00;;;;;;5065697;28;20191;-66
2023/04/25 08:20:18;;;;;;;7.22;2.33;;;16.80;1.00;;;;;;5024782;28;20282;-66
2023/04/25 08:22:45;;;;;;;11.18;2.65;;;18.80;1.00;;;;;;5045053;28;20265;-66
2023/04/25 08:25:25;;;;;;;8.80;2.58;;;19.30;1.00;;;;;;5065730;28;20230;-66
2023/04/25 08:27:52;;;;;;;5.18;2.25;;;20.90;1.00;;;;;;5051690;28;20318;-66
2023/04/25 08:30:21;;;;;;;7.43;2.20;;;21.10;1.00;;;;;;5067085;28;20689;-66
2023/04/25 08:32:50;;;;;;;10.13;2.65;;;19.30;1.00;;;;;;5046852;28;20246;-67
2023/04/25 08:35:40;;;;;;;11.60;3.17;;;17.70;1.00;;;;;;5036607;28;20203;-66
2023/04/25 08:38:07;;;;;;;7.93;2.50;;;16.50;1.00;;;;;;5043097;28;20252;-67
2023/04/25 08:40:38;;;;;;;6.65;2.60;;;15.80;1.00;;;;;;5053233;28;20546;-67
2023/04/25 08:43:14;;;;;;;9.95;2.50;;;16.00;1.00;;;;;;5050643;28;20348;-66
2023/04/25 08:45:42;;;;;;;5.00;2.20;;;15.70;1.00;;;;;;5024920;28;20287;-69
2023/04/25 08:48:16;;;;;;;7.75;2.30;;;15.50;1.00;;;;;;5029562;28;20195;-67
2023/04/25 08:50:50;;;;;;;8.45;2.95;;;15.40;1.00;;;;;;5043872;28;20195;-67
2023/04/25 08:53:27;;;;;;;8.93;2.60;;;15.90;1.00;;;;;;5047692;28;20190;-66
2023/04/25 08:55:59;;;;;;;7.13;2.28;;;16.10;1.00;;;;;;5063289;28;20366;-66
2023/04/25 08:58:27;;;;;;;7.88;2.70;;;16.20;1.00;;;;;;5063742;28;20276;-65
2023/04/25 09:00:55;;;;;;;7.97;2.63;;;16.80;1.00;;;;;;5063998;28;20200;-66
2023/04/25 09:03:26;;;;;;;6.90;2.45;;;17.70;1.00;;;;;;5044002;28;20827;-66
2023/04/25 09:05:55;;;;;;;7.47;2.80;;;18.50;1.00;;;;;;5039534;28;20206;-66
2023/04/25 09:08:22;;;;;;;4.97;2.47;;;19.30;1.00;;;;;;5041145;28;20728;-66
2023/04/25 09:10:49;;;;;;;6.72;2.50;;;19.50;1.00;;;;;;5043534;28;20188;-66
2023/04/25 09:13:25;;;;;;;8.60;2.55;;;18.60;1.00;;;;;;5047302;28;20274;-67
2023/04/25 09:16:17;;;;;;;7.55;2.58;;;16.30;1.00;;;;;;5066915;28;20195;-66
2023/04/25 09:19:07;;;;;;;7.97;3.50;;;15.50;1.00;;;;;;5038452;28;20219;-68
2023/04/25 09:21:34;;;;;;;9.77;2.92;;;15.20;1.00;;;;;;5039623;28;20202;-67
2023/04/25 09:24:02;;;;;;;8.77;2.60;;;15.00;1.00;;;;;;5041051;28;20259;-66
2023/04/25 09:26:29;;;;;;;14.35;5.75;;;14.40;1.00;;;;;;5029262;28;20244;-66
2023/04/25 09:29:08;;;;;;;13.38;5.47;;;13.90;1.00;;;;;;5044068;28;20970;-68
2023/04/25 09:31:39;;;;;;;7.03;2.15;;;13.20;1.00;;;;;;5038348;28;20677;-67
2023/04/25 09:34:11;;;;;;;9.32;3.58;;;13.10;1.00;;;;;;5040730;28;20200;-68
2023/04/25 09:36:43;;;;;;;11.27;2.95;;;13.40;1.00;;;;;;5042855;28;20305;-66
2023/04/25 09:39:28;;;;;;;6.25;3.00;;;13.50;1.00;;;;;;5043115;28;20302;-66
2023/04/25 09:42:03;;;;;;;9.07;2.92;;;14.00;1.00;;;;;;5044484;28;20831;-66
2023/04/25 09:44:31;;;;;;;9.88;2.92;;;14.80;1.00;;;;;;5047381;28;20209;-67
2023/04/25 09:46:59;;;;;;;6.47;2.17;;;15.30;1.00;;;;;;5026785;28;20222;-68
2023/04/25 09:49:28;;;;;;;7.70;3.28;;;15.10;1.00;;;;;;5042297;28;20194;-67
2023/04/25 09:52:01;;;;;;;6.80;3.30;;;14.90;1.00;;;;;;5059036;28;20187;-68
2023/04/25 09:54:34;;;;;;;8.05;2.78;;;15.00;1.00;;;;;;5040365;28;20662;-66
2023/04/25 09:57:11;;;;;;;6.40;2.88;;;15.80;1.00;;;;;;5036933;28;20606;-67
2023/04/25 09:59:44;;;;;;;6.97;2.17;;;16.80;1.00;;;;;;5046331;28;20557;-67
2023/04/25 10:02:12;;;;;;;7.32;3.08;;;18.50;1.00;;;;;;5037215;28;20326;-66
2023/04/25 10:04:41;;;;;;;9.60;3.58;;;19.40;1.00;;;;;;5043285;28;20187;-65
2023/04/25 10:07:19;;;;;;;5.72;3.20;;;21.10;1.00;;;;;;5059647;28;20234;-66
2023/04/25 10:09:50;;;;;;;6.03;3.47;;;24.10;1.00;;;;;;5060821;28;20662;-66
2023/04/25 10:12:17;;;;;;;11.48;3.65;;;27.10;1.00;;;;;;5054683;28;20200;-65
2023/04/25 10:14:45;;;;;;;7.88;3.13;;;28.50;1.00;;;;;;5038604;28;20281;-64
2023/04/25 10:17:12;;;;;;;6.13;4.10;;;27.70;1.00;;;;;;5057024;28;20300;-64
2023/04/25 10:19:39;;;;;;;6.40;2.33;;;26.40;1.00;;;;;;5041116;28;20584;-64
2023/04/25 10:22:06;;;;;;;7.70;2.50;;;25.40;1.00;;;;;;5061649;28;20288;-64
2023/04/25 10:24:36;;;;;;;4.95;3.42;;;23.40;1.00;;;;;;5060536;28;20191;-66
2023/04/25 10:27:05;;;;;;;6.50;3.72;;;21.20;1.00;;;;;;5051359;28;20221;-67
2023/04/25 10:29:32;;;;;;;7.78;2.80;;;19.90;1.00;;;;;;5038203;28;20683;-66
2023/04/25 10:31:59;;;;;;;6.28;3.30;;;18.80;1.00;;;;;;5064759;28;20188;-67
2023/04/25 10:34:40;;;;;;;7.93;2.25;;;17.00;1.00;;;;;;5066700;28;20186;-66
2023/04/25 10:37:11;;;;;;;5.13;3.90;;;15.90;1.00;;;;;;5062480;28;20677;-67
2023/04/25 10:39:40;;;;;;;9.60;5.25;;;15.70;1.00;;;;;;5041366;28;20191;-67
2023/04/25 10:42:07;;;;;;;10.10;3.67;;;15.10;1.00;;;;;;5065943;28;20214;-66
2023/04/25 10:44:38;;;;;;;5.95;2.65;;;15.20;1.00;;;;;;5061469;28;20673;-66
2023/04/25 10:47:07;;;;;;;6.43;2.95;;;15.20;1.00;;;;;;5062019;28;20274;-66
2023/04/25 10:49:36;;;;;;;3.97;1.83;;;15.10;1.00;;;;;;5064284;28;20281;-67
2023/04/25 10:52:30;;;;;;;9.80;3.88;;;15.20;1.00;;;;;;5066743;28;20546;-66
2023/04/25 10:54:58;;;;;;;7.20;3.42;;;15.60;1.00;;;;;;5067309;28;20588;-66
2023/04/25 10:57:40;;;;;;;7.40;3.67;;;15.50;1.00;;;;;;5061416;28;20198;-67
2023/04/25 11:00:18;;;;;;;8.27;4.30;;;15.10;1.00;;;;;;5063305;28;20191;-66
2023/04/25 11:02:47;;;;;;;8.82;2.85;;;15.00;1.00;;;;;;5062783;28;20230;-66
2023/04/25 11:05:32;;;;;;;5.43;2.30;;;15.00;1.00;;;;;;5046810;28;20218;-66
2023/04/25 11:08:13;;;;;;;8.90;4.20;;;14.80;1.00;;;;;;5062084;28;20257;-66
2023/04/25 11:10:41;;;;;;;10.05;2.45;;;15.00;1.00;;;;;;5062090;28;20191;-67
2023/04/25 11:13:08;;;;;;;8.82;4.70;;;15.10;1.00;;;;;;5044373;28;20203;-66
2023/04/25 11:15:36;;;;;;;6.25;3.13;;;15.60;1.00;;;;;;5063765;28;20191;-65
2023/04/25 11:18:03;;;;;;;4.75;2.95;;;15.90;1.00;;;;;;5064271;28;20201;-68
2023/04/25 11:20:30;;;;;;;6.28;2.55;;;16.50;1.00;;;;;;5061022;28;20234;-67
2023/04/25 11:23:01;;;;;;;5.43;2.20;;;16.90;1.00;;;;;;5044477;28;20748;-67
2023/04/25 11:25:33;;;;;;;4.50;2.65;;;17.50;1.00;;;;;;5062765;28;20197;-66
2023/04/25 11:28:04;;;;;;;6.70;2.97;;;18.00;1.00;;;;;;5062596;28;20207;-66
2023/04/25 11:30:31;;;;;;;5.45;2.97;;;17.80;1.00;;;;;;5053994;28;20194;-66
2023/04/25 11:32:58;;;;;;;5.45;2.90;;;18.30;1.00;;;;;;5042757;28;20191;-66
2023/04/25 11:35:25;;;;;;;5.72;2.53;;;18.10;1.00;;;;;;5041710;28;20199;-69
2023/04/25 11:37:52;;;;;;;4.30;2.10;;;18.10;1.00;;;;;;5044630;28;21507;-66
2023/04/25 11:40:20;;;;;;;6.15;2.58;;;18.30;1.00;;;;;;5044913;28;20241;-68
2023/04/25 11:42:47;;;;;;;6.95;2.67;;;18.70;1.00;;;;;;5043888;28;20709;-65
2023/04/25 11:45:14;;;;;;;6.30;2.13;;;20.00;1.00;;;;;;5042296;28;20195;-66
2023/04/25 11:47:41;;;;;;;4.18;2.30;;;19.80;1.00;;;;;;5059734;28;20966;-67
2023/04/25 11:50:09;;;;;;;4.57;2.08;;;19.70;1.00;;;;;;5061187;28;20194;-65
2023/04/25 11:52:47;;;;;;;4.43;2.03;;;20.50;1.00;;;;;;5062311;28;20285;-64
2023/04/25 11:55:16;;;;;;;4.38;1.95;;;20.80;1.00;;;;;;5059794;28;20289;-67
2023/04/25 11:57:48;;;;;;;4.05;2.13;;;21.20;1.00;;;;;;5061593;28;20650;-65
2023/04/25 12:00:19;;;;;;;6.03;2.25;;;18.90;1.00;;;;;;5061318;28;20248;-67
2023/04/25 12:02:50;;;;;;;3.95;2.22;;;18.40;1.00;;;;;;5041370;28;20245;-66
2023/04/25 12:05:19;;;;;;;3.60;1.60;;;19.70;1.00;;;;;;5062004;28;20214;-65
2023/04/25 12:08:19;;;;;;;4.07;2.03;;;20.20;1.00;;;;;;5061923;28;20665;-65
2023/04/25 12:10:46;;;;;;;6.75;2.20;;;20.00;1.00;;;;;;5062572;28;20191;-65
2023/04/25 12:13:22;;;;;;;5.63;2.58;;;19.90;1.00;;;;;;5061081;28;20203;-65
2023/04/25 12:15:49;;;;;;;5.25;2.00;;;19.20;1.00;;;;;;5060572;28;20214;-65
2023/04/25 12:18:35;;;;;;;4.25;1.80;;;19.00;1.00;;;;;;5041961;28;20769;-66
2023/04/25 12:21:04;;;;;;;4.03;1.98;;;19.00;1.00;;;;;;5062866;28;20232;-66
2023/04/25 12:23:32;;;;;;;5.70;2.65;;;19.00;1.00;;;;;;5065713;28;20258;-66
2023/04/25 12:25:58;;;;;;;7.82;2.60;;;18.30;1.00;;;;;;5047211;28;20205;-66
2023/04/25 12:28:28;;;;;;;3.08;1.52;;;16.30;1.00;;;;;;5061962;28;20693;-66
2023/04/25 12:31:04;;;;;;;3.28;2.05;;;16.60;1.00;;;;;;5041593;28;20189;-65
2023/04/25 12:33:33;;;;;;;4.10;2.00;;;16.40;1.00;;;;;;5058175;28;20273;-66
2023/04/25 12:36:09;;;;;;;5.55;1.95;;;16.20;1.00;;;;;;5060283;28;20217;-66
2023/04/25 12:38:38;;;;;;;8.55;2.15;;;15.50;1.00;;;;;;5060243;28;20194;-64
2023/04/25 12:41:05;;;;;;;7.60;2.07;;;15.00;1.00;;;;;;5055686;28;20382;-65
2023/04/25 12:43:33;;;;;;;5.65;2.30;;;13.90;1.00;;;;;;5061705;28;20207;-65
2023/04/25 12:46:00;;;;;;;4.90;1.70;;;13.70;1.00;;;;;;5059020;28;20191;-64
2023/04/25 12:48:27;;;;;;;4.40;2.00;;;13.50;1.00;;;;;;5041346;28;20198;-65
2023/04/25 12:50:54;;;;;;;5.27;1.90;;;13.20;1.00;;;;;;5059262;28;20197;-65
2023/04/25 12:53:23;;;;;;;5.73;1.90;;;12.90;1.00;;;;;;5061565;28;20573;-65
2023/04/25 12:55:51;;;;;;;5.47;1.90;;;13.00;1.00;;;;;;5060240;28;20829;-65
2023/04/25 12:58:19;;;;;;;5.00;2.30;;;13.40;1.00;;;;;;5060005;28;20261;-66
2023/04/25 13:00:50;;;;;;;8.40;2.30;;;13.40;1.00;;;;;;5040485;28;20543;-65
2023/04/25 13:03:17;;;;;;;10.30;4.13;;;13.40;1.00;;;;;;5019590;28;20313;-66
2023/04/25 13:05:45;;;;;;;6.93;3.83;;;13.70;1.00;;;;;;5060535;28;20195;-64
2023/04/25 13:08:12;;;;;;;6.60;2.13;;;13.80;1.00;;;;;;5043634;28;20187;-66
2023/04/25 13:10:40;;;;;;;8.90;1.90;;;14.00;1.00;;;;;;5042045;28;20199;-65
2023/04/25 13:13:07;;;;;;;3.83;1.70;;;14.00;1.00;;;;;;5060898;28;20555;-66
2023/04/25 13:15:34;;;;;;;7.03;2.17;;;13.60;1.00;;;;;;5061396;28;20298;-67
2023/04/25 13:18:01;;;;;;;7.40;2.50;;;13.50;1.00;;;;;;5062244;28;20252;-65